createdAt,value
2017-02-24T00:00:59.802Z,981.13
2017-02-24T00:02:00.338Z,981.25
2017-02-24T00:03:00.876Z,981.19
2017-02-24T00:04:01.411Z,981.30
2017-02-24T00:05:01.945Z,981.15
2017-02-24T00:06:02.472Z,981.34
2017-02-24T00:07:03.008Z,981.34
2017-02-24T00:08:03.537Z,981.32
2017-02-24T00:09:04.229Z,981.46
2017-02-24T00:10:04.616Z,981.40
2017-02-24T00:11:05.154Z,981.47
2017-02-24T00:12:05.684Z,981.45
2017-02-24T00:13:06.217Z,981.44
2017-02-24T00:14:06.751Z,981.45
2017-02-24T00:15:07.290Z,981.50
2017-02-24T00:16:07.812Z,981.58
2017-02-24T00:17:08.351Z,981.48
2017-02-24T00:18:08.880Z,981.52
2017-02-24T00:19:09.571Z,981.31
2017-02-24T00:20:09.951Z,981.61
2017-02-24T00:21:10.474Z,981.52
2017-02-24T00:22:11.007Z,981.51
2017-02-24T00:23:11.546Z,981.45
2017-02-24T00:24:12.071Z,981.63
2017-02-24T00:25:12.600Z,981.49
2017-02-24T00:26:13.130Z,981.63
2017-02-24T00:27:13.654Z,981.52
2017-02-24T00:28:14.196Z,981.48
2017-02-24T00:29:14.733Z,981.45
2017-02-24T00:30:15.259Z,981.53
2017-02-24T00:31:15.784Z,981.50
2017-02-24T00:32:16.316Z,981.49
2017-02-24T00:33:16.852Z,981.45
2017-02-24T00:34:17.384Z,981.57
2017-02-24T00:35:17.912Z,981.57
2017-02-24T00:36:18.447Z,981.54
2017-02-24T00:37:18.993Z,981.64
2017-02-24T00:38:19.510Z,981.42
2017-02-24T00:39:20.192Z,981.62
2017-02-24T00:40:20.573Z,981.60
2017-02-24T00:41:21.101Z,981.60
2017-02-24T00:42:21.640Z,981.56
2017-02-24T00:43:22.171Z,981.46
2017-02-24T00:44:22.702Z,981.52
2017-02-24T00:45:23.382Z,981.60
2017-02-24T00:46:23.764Z,981.56
2017-02-24T00:47:24.449Z,981.41
2017-02-24T00:48:24.828Z,981.47
2017-02-24T00:49:25.362Z,981.41
2017-02-24T00:50:25.898Z,981.56
2017-02-24T00:51:26.439Z,981.58
2017-02-24T00:52:26.976Z,981.54
2017-02-24T00:53:27.509Z,981.63
2017-02-24T00:54:28.045Z,981.65
2017-02-24T00:55:28.739Z,981.64
2017-02-24T00:56:29.109Z,981.66
2017-02-24T00:57:29.790Z,981.66
2017-02-24T00:58:30.179Z,981.77
2017-02-24T00:59:30.860Z,981.66
2017-02-24T01:00:31.242Z,981.73
2017-02-24T01:01:31.778Z,981.68
2017-02-24T01:02:32.305Z,981.79
2017-02-24T01:03:32.836Z,981.60
2017-02-24T01:04:33.370Z,981.87
2017-02-24T01:05:33.899Z,981.92
2017-02-24T01:06:34.432Z,982.02
2017-02-24T01:07:34.964Z,981.95
2017-02-24T01:08:35.500Z,982.01
2017-02-24T01:09:36.031Z,982.20
2017-02-24T01:10:36.564Z,982.17
2017-02-24T01:11:37.100Z,982.18
2017-02-24T01:12:37.627Z,982.24
2017-02-24T01:13:38.160Z,982.26
2017-02-24T01:14:38.691Z,982.27
2017-02-24T01:15:39.226Z,982.27
2017-02-24T01:16:39.756Z,982.27
2017-02-24T01:17:40.287Z,982.32
2017-02-24T01:18:40.821Z,982.34
2017-02-24T01:19:41.355Z,982.45
2017-02-24T01:20:41.882Z,982.34
2017-02-24T01:21:42.418Z,982.34
2017-02-24T01:22:42.951Z,982.50
2017-02-24T01:23:43.478Z,982.59
2017-02-24T01:24:44.011Z,982.77
2017-02-24T01:25:44.692Z,982.62
2017-02-24T01:26:45.075Z,982.74
2017-02-24T01:27:45.607Z,982.72
2017-02-24T01:28:46.137Z,982.70
2017-02-24T01:29:46.817Z,982.92
2017-02-24T01:30:47.205Z,982.83
2017-02-24T01:31:47.738Z,982.84
2017-02-24T01:32:48.275Z,982.92
2017-02-24T01:33:48.956Z,982.96
2017-02-24T01:34:49.644Z,982.98
2017-02-24T01:35:49.880Z,983.13
2017-02-24T01:36:50.415Z,983.12
2017-02-24T01:37:50.956Z,983.16
2017-02-24T01:38:51.477Z,983.15
2017-02-24T01:39:52.006Z,983.14
2017-02-24T01:40:52.545Z,983.22
2017-02-24T01:41:53.076Z,983.33
2017-02-24T01:42:53.608Z,983.43
2017-02-24T01:43:54.138Z,983.27
2017-02-24T01:44:54.669Z,983.48
2017-02-24T01:45:55.200Z,983.54
2017-02-24T01:46:55.734Z,983.65
2017-02-24T01:47:56.260Z,983.80
2017-02-24T01:48:56.800Z,983.98
2017-02-24T01:49:57.354Z,984.07
2017-02-24T01:50:57.866Z,984.12
2017-02-24T01:51:58.393Z,984.36
2017-02-24T01:52:58.926Z,984.46
2017-02-24T01:53:59.474Z,984.58
2017-02-24T01:54:59.988Z,984.69
2017-02-24T01:56:00.519Z,984.79
2017-02-24T01:57:01.057Z,984.86
2017-02-24T01:58:01.585Z,985.00
2017-02-24T01:59:02.116Z,985.06
2017-02-24T02:00:02.649Z,985.23
2017-02-24T02:01:03.182Z,985.12
2017-02-24T02:02:03.712Z,985.23
2017-02-24T02:03:04.245Z,985.30
2017-02-24T02:04:04.776Z,985.38
2017-02-24T02:05:05.313Z,985.59
2017-02-24T02:06:05.842Z,985.55
2017-02-24T02:07:06.370Z,985.57
2017-02-24T02:08:06.901Z,985.59
2017-02-24T02:09:07.433Z,985.69
2017-02-24T02:10:07.973Z,985.88
2017-02-24T02:11:08.494Z,985.84
2017-02-24T02:12:09.030Z,986.05
2017-02-24T02:13:09.569Z,985.99
2017-02-24T02:14:10.116Z,986.13
2017-02-24T02:15:10.641Z,986.08
2017-02-24T02:16:11.180Z,986.14
2017-02-24T02:17:11.717Z,986.11
2017-02-24T02:18:12.244Z,986.30
2017-02-24T02:19:12.780Z,986.35
2017-02-24T02:20:13.456Z,986.40
2017-02-24T02:21:13.837Z,986.43
2017-02-24T02:22:14.364Z,986.50
2017-02-24T02:23:15.062Z,986.52
2017-02-24T02:24:15.428Z,986.61
2017-02-24T02:25:15.965Z,986.74
2017-02-24T02:26:16.492Z,986.81
2017-02-24T02:27:17.027Z,986.97
2017-02-24T02:28:17.560Z,986.87
2017-02-24T02:29:18.090Z,986.88
2017-02-24T02:30:18.621Z,987.10
2017-02-24T02:31:19.182Z,987.13
2017-02-24T02:32:19.689Z,987.25
2017-02-24T02:33:20.221Z,987.10
2017-02-24T02:34:20.751Z,987.17
2017-02-24T02:35:21.285Z,987.04
2017-02-24T02:36:21.819Z,987.24
2017-02-24T02:37:22.353Z,987.32
2017-02-24T02:38:22.884Z,987.33
2017-02-24T02:39:23.421Z,987.38
2017-02-24T02:40:23.952Z,987.41
2017-02-24T02:41:24.486Z,987.54
2017-02-24T02:42:25.017Z,987.59
2017-02-24T02:43:25.549Z,987.53
2017-02-24T02:44:26.081Z,987.57
2017-02-24T02:45:26.614Z,987.63
2017-02-24T02:46:27.297Z,987.59
2017-02-24T02:47:27.680Z,987.64
2017-02-24T02:48:28.212Z,987.72
2017-02-24T02:49:28.746Z,987.70
2017-02-24T02:50:29.272Z,987.86
2017-02-24T02:51:29.808Z,987.69
2017-02-24T02:52:30.496Z,987.84
2017-02-24T02:53:30.877Z,987.74
2017-02-24T02:54:31.412Z,987.81
2017-02-24T02:55:31.949Z,988.00
2017-02-24T02:56:32.630Z,987.85
2017-02-24T02:57:33.013Z,987.85
2017-02-24T02:58:33.553Z,987.91
2017-02-24T02:59:34.079Z,987.95
2017-02-24T03:00:34.611Z,988.18
2017-02-24T03:01:35.140Z,988.01
2017-02-24T03:02:35.673Z,988.11
2017-02-24T03:03:36.209Z,988.29
2017-02-24T03:04:36.736Z,988.27
2017-02-24T03:05:37.270Z,988.20
2017-02-24T03:06:37.954Z,988.29
2017-02-24T03:07:38.338Z,988.27
2017-02-24T03:08:38.866Z,988.33
2017-02-24T03:09:39.401Z,988.41
2017-02-24T03:10:40.225Z,988.36
2017-02-24T03:11:40.462Z,988.52
2017-02-24T03:12:40.995Z,988.58
2017-02-24T03:13:41.530Z,988.66
2017-02-24T03:14:42.057Z,988.54
2017-02-24T03:15:42.591Z,988.81
2017-02-24T03:16:43.119Z,988.94
2017-02-24T03:17:43.654Z,988.95
2017-02-24T03:18:44.376Z,989.08
2017-02-24T03:19:44.723Z,988.99
2017-02-24T03:20:45.250Z,989.10
2017-02-24T03:21:45.784Z,989.14
2017-02-24T03:22:46.312Z,989.22
2017-02-24T03:23:46.846Z,989.37
2017-02-24T03:24:47.383Z,989.38
2017-02-24T03:25:47.902Z,989.38
2017-02-24T03:26:48.431Z,989.44
2017-02-24T03:27:48.968Z,989.47
2017-02-24T03:28:49.511Z,989.58
2017-02-24T03:29:50.031Z,989.60
2017-02-24T03:30:50.559Z,989.66
2017-02-24T03:31:51.098Z,989.65
2017-02-24T03:32:51.635Z,989.62
2017-02-24T03:33:52.163Z,989.75
2017-02-24T03:34:52.699Z,989.86
2017-02-24T03:35:53.236Z,989.89
2017-02-24T03:36:53.914Z,989.89
2017-02-24T03:37:54.296Z,989.81
2017-02-24T03:38:54.824Z,989.92
2017-02-24T03:39:55.503Z,989.90
2017-02-24T03:40:55.884Z,989.86
2017-02-24T03:41:56.414Z,989.96
2017-02-24T03:42:56.948Z,990.11
2017-02-24T03:43:57.481Z,990.22
2017-02-24T03:44:58.013Z,990.35
2017-02-24T03:45:58.552Z,990.17
2017-02-24T03:46:59.069Z,990.31
2017-02-24T03:47:59.603Z,990.33
2017-02-24T03:49:00.143Z,990.41
2017-02-24T03:50:00.667Z,990.47
2017-02-24T03:51:01.209Z,990.53
2017-02-24T03:52:01.727Z,990.53
2017-02-24T03:53:02.259Z,990.55
2017-02-24T03:54:02.793Z,990.66
2017-02-24T03:55:03.320Z,990.68
2017-02-24T03:56:03.854Z,990.65
2017-02-24T03:57:04.381Z,990.82
2017-02-24T03:58:04.913Z,990.78
2017-02-24T03:59:05.447Z,990.82
2017-02-24T04:00:05.975Z,990.88
2017-02-24T04:01:06.503Z,990.88
2017-02-24T04:02:07.037Z,990.95
2017-02-24T04:03:07.569Z,991.03
2017-02-24T04:04:08.098Z,991.03
2017-02-24T04:05:08.635Z,991.12
2017-02-24T04:06:09.161Z,991.14
2017-02-24T04:07:09.690Z,991.08
2017-02-24T04:08:10.231Z,991.14
2017-02-24T04:09:10.755Z,991.22
2017-02-24T04:10:11.292Z,991.37
2017-02-24T04:11:11.829Z,991.32
2017-02-24T04:12:12.355Z,991.31
2017-02-24T04:13:12.886Z,991.36
2017-02-24T04:14:13.427Z,991.37
2017-02-24T04:15:13.963Z,991.41
2017-02-24T04:16:14.489Z,991.50
2017-02-24T04:17:15.031Z,991.44
2017-02-24T04:18:15.577Z,991.51
2017-02-24T04:19:16.095Z,991.52
2017-02-24T04:20:16.632Z,991.50
2017-02-24T04:21:17.172Z,991.57
2017-02-24T04:22:17.693Z,991.54
2017-02-24T04:23:18.223Z,991.62
2017-02-24T04:24:18.759Z,991.68
2017-02-24T04:25:19.290Z,991.73
2017-02-24T04:26:19.840Z,991.74
2017-02-24T04:27:20.344Z,991.70
2017-02-24T04:28:20.878Z,991.78
2017-02-24T04:29:21.403Z,991.77
2017-02-24T04:30:21.938Z,991.75
2017-02-24T04:31:22.461Z,991.70
2017-02-24T04:32:22.992Z,991.83
2017-02-24T04:33:23.677Z,991.92
2017-02-24T04:34:24.061Z,991.88
2017-02-24T04:35:24.591Z,991.95
2017-02-24T04:36:25.135Z,991.96
2017-02-24T04:37:25.659Z,991.96
2017-02-24T04:38:26.193Z,992.09
2017-02-24T04:39:26.726Z,992.17
2017-02-24T04:40:27.254Z,992.23
2017-02-24T04:41:27.784Z,992.22
2017-02-24T04:42:28.318Z,992.18
2017-02-24T04:43:28.848Z,992.12
2017-02-24T04:44:29.386Z,992.26
2017-02-24T04:45:29.914Z,992.20
2017-02-24T04:46:30.447Z,992.27
2017-02-24T04:47:30.978Z,992.32
2017-02-24T04:48:31.514Z,992.31
2017-02-24T04:49:32.044Z,992.26
2017-02-24T04:50:32.569Z,992.39
2017-02-24T04:51:33.109Z,992.45
2017-02-24T04:52:33.632Z,992.37
2017-02-24T04:53:34.177Z,992.41
2017-02-24T04:54:34.694Z,992.32
2017-02-24T04:55:35.378Z,992.45
2017-02-24T04:56:35.763Z,992.51
2017-02-24T04:57:36.445Z,992.52
2017-02-24T04:58:36.836Z,992.52
2017-02-24T04:59:37.380Z,992.51
2017-02-24T05:00:37.904Z,992.40
2017-02-24T05:01:38.437Z,992.55
2017-02-24T05:02:39.116Z,992.57
2017-02-24T05:03:39.501Z,992.59
2017-02-24T05:04:40.040Z,992.52
2017-02-24T05:05:40.572Z,992.57
2017-02-24T05:06:41.103Z,992.68
2017-02-24T05:07:41.639Z,992.63
2017-02-24T05:08:42.164Z,992.62
2017-02-24T05:09:42.691Z,992.63
2017-02-24T05:10:43.223Z,992.70
2017-02-24T05:11:43.763Z,992.71
2017-02-24T05:12:44.286Z,992.86
2017-02-24T05:13:44.817Z,992.81
2017-02-24T05:14:45.349Z,992.84
2017-02-24T05:15:45.879Z,992.87
2017-02-24T05:16:46.409Z,992.91
2017-02-24T05:17:46.943Z,992.85
2017-02-24T05:18:47.616Z,992.92
2017-02-24T05:19:48.005Z,992.91
2017-02-24T05:20:48.536Z,992.97
2017-02-24T05:21:49.070Z,993.03
2017-02-24T05:22:49.597Z,992.95
2017-02-24T05:23:50.126Z,993.05
2017-02-24T05:24:50.660Z,992.99
2017-02-24T05:25:51.341Z,993.08
2017-02-24T05:26:51.720Z,993.15
2017-02-24T05:27:52.402Z,993.12
2017-02-24T05:28:52.784Z,993.20
2017-02-24T05:29:53.311Z,993.20
2017-02-24T05:30:53.840Z,993.21
2017-02-24T05:31:54.370Z,993.24
2017-02-24T05:32:54.911Z,993.18
2017-02-24T05:33:55.447Z,993.26
2017-02-24T05:34:55.987Z,993.23
2017-02-24T05:35:56.525Z,993.30
2017-02-24T05:36:57.071Z,993.29
2017-02-24T05:37:57.606Z,993.38
2017-02-24T05:38:58.152Z,993.36
2017-02-24T05:39:58.695Z,993.51
2017-02-24T05:40:59.383Z,993.47
2017-02-24T05:41:59.773Z,993.54
2017-02-24T05:43:00.316Z,993.52
2017-02-24T05:44:00.996Z,993.54
2017-02-24T05:45:01.541Z,993.54
2017-02-24T05:46:01.946Z,993.60
2017-02-24T05:47:02.479Z,993.54
2017-02-24T05:48:03.163Z,993.62
2017-02-24T05:49:03.555Z,993.62
2017-02-24T05:50:04.091Z,993.71
2017-02-24T05:51:04.627Z,993.77
2017-02-24T05:52:05.167Z,993.78
2017-02-24T05:53:05.845Z,993.75
2017-02-24T05:54:06.235Z,993.76
2017-02-24T05:55:06.943Z,993.84
2017-02-24T05:56:07.311Z,993.86
2017-02-24T05:57:07.859Z,993.82
2017-02-24T05:58:08.389Z,993.89
2017-02-24T05:59:08.930Z,993.87
2017-02-24T06:00:09.467Z,993.92
2017-02-24T06:01:10.004Z,993.89
2017-02-24T06:02:10.555Z,993.97
2017-02-24T06:03:11.081Z,994.01
2017-02-24T06:04:11.610Z,994.11
2017-02-24T06:05:12.149Z,994.05
2017-02-24T06:06:12.678Z,993.93
2017-02-24T06:07:13.208Z,994.09
2017-02-24T06:08:13.738Z,994.11
2017-02-24T06:09:14.269Z,994.19
2017-02-24T06:10:14.799Z,994.13
2017-02-24T06:11:15.331Z,994.16
2017-02-24T06:12:15.868Z,994.24
2017-02-24T06:13:16.395Z,994.28
2017-02-24T06:14:16.925Z,994.38
2017-02-24T06:15:17.456Z,994.36
2017-02-24T06:16:18.001Z,994.31
2017-02-24T06:17:18.521Z,994.31
2017-02-24T06:18:19.055Z,994.33
2017-02-24T06:19:19.586Z,994.46
2017-02-24T06:20:20.119Z,994.37
2017-02-24T06:21:20.656Z,994.43
2017-02-24T06:22:21.192Z,994.43
2017-02-24T06:23:21.726Z,994.36
2017-02-24T06:24:22.254Z,994.51
2017-02-24T06:25:22.785Z,994.41
2017-02-24T06:26:23.314Z,994.58
2017-02-24T06:27:23.850Z,994.49
2017-02-24T06:28:24.380Z,994.59
2017-02-24T06:29:24.916Z,994.51
2017-02-24T06:30:25.446Z,994.61
2017-02-24T06:31:25.978Z,994.65
2017-02-24T06:32:26.509Z,994.66
2017-02-24T06:33:27.041Z,994.61
2017-02-24T06:34:27.580Z,994.65
2017-02-24T06:35:28.104Z,994.70
2017-02-24T06:36:28.632Z,994.69
2017-02-24T06:37:29.165Z,994.75
2017-02-24T06:38:29.849Z,994.79
2017-02-24T06:39:30.229Z,994.81
2017-02-24T06:40:30.770Z,994.90
2017-02-24T06:41:31.298Z,994.90
2017-02-24T06:42:31.831Z,994.83
2017-02-24T06:43:32.357Z,994.91
2017-02-24T06:44:32.890Z,995.03
2017-02-24T06:45:33.421Z,995.04
2017-02-24T06:46:33.952Z,995.11
2017-02-24T06:47:34.481Z,995.10
2017-02-24T06:48:35.015Z,995.12
2017-02-24T06:49:35.563Z,995.13
2017-02-24T06:50:36.122Z,995.10
2017-02-24T06:51:36.633Z,995.22
2017-02-24T06:52:37.171Z,995.12
2017-02-24T06:53:37.710Z,995.19
2017-02-24T06:54:38.258Z,995.19
2017-02-24T06:55:38.787Z,995.22
2017-02-24T06:56:39.322Z,995.17
2017-02-24T06:57:39.864Z,995.27
2017-02-24T06:58:40.397Z,995.26
2017-02-24T06:59:40.941Z,995.29
2017-02-24T07:00:41.470Z,995.28
2017-02-24T07:01:42.010Z,995.29
2017-02-24T07:02:42.697Z,995.36
2017-02-24T07:03:43.081Z,995.26
2017-02-24T07:04:43.613Z,995.42
2017-02-24T07:05:44.140Z,995.42
2017-02-24T07:06:44.687Z,995.36
2017-02-24T07:07:45.206Z,995.36
2017-02-24T07:08:45.746Z,995.45
2017-02-24T07:09:46.273Z,995.51
2017-02-24T07:10:46.802Z,995.47
2017-02-24T07:11:47.334Z,995.54
2017-02-24T07:12:47.868Z,995.47
2017-02-24T07:13:48.406Z,995.57
2017-02-24T07:14:49.088Z,995.57
2017-02-24T07:15:49.482Z,995.57
2017-02-24T07:16:50.022Z,995.57
2017-02-24T07:17:50.563Z,995.57
2017-02-24T07:18:51.110Z,995.57
2017-02-24T07:19:51.645Z,995.57
2017-02-24T07:20:52.189Z,995.60
2017-02-24T07:21:52.717Z,995.66
2017-02-24T07:22:53.242Z,995.76
2017-02-24T07:23:53.775Z,995.80
2017-02-24T07:24:54.500Z,995.85
2017-02-24T07:25:54.843Z,995.74
2017-02-24T07:26:55.381Z,995.77
2017-02-24T07:27:55.901Z,995.91
2017-02-24T07:28:56.429Z,995.87
2017-02-24T07:29:56.962Z,995.90
2017-02-24T07:30:57.502Z,995.84
2017-02-24T07:31:58.037Z,995.97
2017-02-24T07:32:58.563Z,995.87
2017-02-24T07:33:59.095Z,995.94
2017-02-24T07:34:59.628Z,995.94
2017-02-24T07:36:00.158Z,995.94
2017-02-24T07:37:00.694Z,995.96
2017-02-24T07:38:01.229Z,995.91
2017-02-24T07:39:01.753Z,995.93
2017-02-24T07:40:02.286Z,996.04
2017-02-24T07:41:02.971Z,996.00
2017-02-24T07:42:03.352Z,996.05
2017-02-24T07:43:03.887Z,995.99
2017-02-24T07:44:04.428Z,996.11
2017-02-24T07:45:04.957Z,996.11
2017-02-24T07:46:05.489Z,995.98
2017-02-24T07:47:06.021Z,996.04
2017-02-24T07:48:06.556Z,996.09
2017-02-24T07:49:07.087Z,996.14
2017-02-24T07:50:07.613Z,996.13
2017-02-24T07:51:08.151Z,996.16
2017-02-24T07:52:08.676Z,996.20
2017-02-24T07:53:09.213Z,996.27
2017-02-24T07:54:09.736Z,996.26
2017-02-24T07:55:10.434Z,996.20
2017-02-24T07:56:10.796Z,996.24
2017-02-24T07:57:11.329Z,996.27
2017-02-24T07:58:11.862Z,996.24
2017-02-24T07:59:12.393Z,996.38
2017-02-24T08:00:12.927Z,996.29
2017-02-24T08:01:13.458Z,996.35
2017-02-24T08:02:13.992Z,996.36
2017-02-24T08:03:14.530Z,996.36
2017-02-24T08:04:15.053Z,996.38
2017-02-24T08:05:15.579Z,996.47
2017-02-24T08:06:16.114Z,996.46
2017-02-24T08:07:16.645Z,996.58
2017-02-24T08:08:17.172Z,996.49
2017-02-24T08:09:17.855Z,996.55
2017-02-24T08:10:18.380Z,996.53
2017-02-24T08:11:18.775Z,996.57
2017-02-24T08:12:19.298Z,996.69
2017-02-24T08:13:19.976Z,996.70
2017-02-24T08:14:20.502Z,996.66
2017-02-24T08:15:20.895Z,996.68
2017-02-24T08:16:21.422Z,996.79
2017-02-24T08:17:21.954Z,996.85
2017-02-24T08:18:22.485Z,996.76
2017-02-24T08:19:23.023Z,996.88
2017-02-24T08:20:23.547Z,996.95
2017-02-24T08:21:24.078Z,996.91
2017-02-24T08:22:24.613Z,996.98
2017-02-24T08:23:25.150Z,996.94
2017-02-24T08:24:25.686Z,997.03
2017-02-24T08:25:26.368Z,997.12
2017-02-24T08:26:26.757Z,997.06
2017-02-24T08:27:27.285Z,997.01
2017-02-24T08:28:27.817Z,997.09
2017-02-24T08:29:28.347Z,997.11
2017-02-24T08:30:28.879Z,997.12
2017-02-24T08:31:29.409Z,997.24
2017-02-24T08:32:29.940Z,997.21
2017-02-24T08:33:30.471Z,997.28
2017-02-24T08:34:31.003Z,997.33
2017-02-24T08:35:31.533Z,997.30
2017-02-24T08:36:32.065Z,997.42
2017-02-24T08:37:32.592Z,997.44
2017-02-24T08:38:33.126Z,997.48
2017-02-24T08:39:33.811Z,997.46
2017-02-24T08:40:34.189Z,997.60
2017-02-24T08:41:34.714Z,997.63
2017-02-24T08:42:35.249Z,997.67
2017-02-24T08:43:36.073Z,997.65
2017-02-24T08:44:36.323Z,997.74
2017-02-24T08:45:36.855Z,997.76
2017-02-24T08:46:37.377Z,997.81
2017-02-24T08:47:37.912Z,997.81
2017-02-24T08:48:38.447Z,997.91
2017-02-24T08:49:38.971Z,997.77
2017-02-24T08:50:39.505Z,997.88
2017-02-24T08:51:40.038Z,997.89
2017-02-24T08:52:40.566Z,997.95
2017-02-24T08:53:41.093Z,997.91
2017-02-24T08:54:41.632Z,998.02
2017-02-24T08:55:42.154Z,998.03
2017-02-24T08:56:42.686Z,998.08
2017-02-24T08:57:43.227Z,998.09
2017-02-24T08:58:43.751Z,998.11
2017-02-24T08:59:44.283Z,998.13
2017-02-24T09:00:44.815Z,998.18
2017-02-24T09:01:45.344Z,998.20
2017-02-24T09:02:45.878Z,998.12
2017-02-24T09:03:46.415Z,998.19
2017-02-24T09:04:46.965Z,998.24
2017-02-24T09:05:47.495Z,998.24
2017-02-24T09:06:48.021Z,998.25
2017-02-24T09:07:48.550Z,998.27
2017-02-24T09:08:49.088Z,998.29
2017-02-24T09:09:49.621Z,998.32
2017-02-24T09:10:50.146Z,998.34
2017-02-24T09:11:50.688Z,998.40
2017-02-24T09:12:51.209Z,998.39
2017-02-24T09:13:51.743Z,998.38
2017-02-24T09:14:52.271Z,998.47
2017-02-24T09:15:52.799Z,998.49
2017-02-24T09:16:53.334Z,998.48
2017-02-24T09:17:53.867Z,998.45
2017-02-24T09:18:54.405Z,998.51
2017-02-24T09:19:54.930Z,998.61
2017-02-24T09:20:55.460Z,998.65
2017-02-24T09:21:55.988Z,998.63
2017-02-24T09:22:56.667Z,998.66
2017-02-24T09:23:57.055Z,998.75
2017-02-24T09:24:57.582Z,998.75
2017-02-24T09:25:58.110Z,998.84
2017-02-24T09:26:58.793Z,998.82
2017-02-24T09:27:59.327Z,998.89
2017-02-24T09:28:59.709Z,998.84
2017-02-24T09:30:00.243Z,998.93
2017-02-24T09:31:00.776Z,999.00
2017-02-24T09:32:01.308Z,999.01
2017-02-24T09:33:01.838Z,999.03
2017-02-24T09:34:02.518Z,999.00
2017-02-24T09:35:02.903Z,999.06
2017-02-24T09:36:03.424Z,999.07
2017-02-24T09:37:03.957Z,999.09
2017-02-24T09:38:04.491Z,999.22
2017-02-24T09:39:05.024Z,999.25
2017-02-24T09:40:05.554Z,999.29
2017-02-24T09:41:06.084Z,999.32
2017-02-24T09:42:06.618Z,999.35
2017-02-24T09:43:07.153Z,999.37
2017-02-24T09:44:07.683Z,999.41
2017-02-24T09:45:08.221Z,999.37
2017-02-24T09:46:08.755Z,999.44
2017-02-24T09:47:09.288Z,999.40
2017-02-24T09:48:09.822Z,999.43
2017-02-24T09:49:10.359Z,999.46
2017-02-24T09:50:10.895Z,999.44
2017-02-24T09:51:11.425Z,999.49
2017-02-24T09:52:11.954Z,999.56
2017-02-24T09:53:12.487Z,999.53
2017-02-24T09:54:13.015Z,999.66
2017-02-24T09:55:13.551Z,999.58
2017-02-24T09:56:14.081Z,999.69
2017-02-24T09:57:14.615Z,999.74
2017-02-24T09:58:15.148Z,999.69
2017-02-24T09:59:15.679Z,999.68
2017-02-24T10:00:16.212Z,999.70
2017-02-24T10:01:16.751Z,999.75
2017-02-24T10:02:17.273Z,999.67
2017-02-24T10:03:17.814Z,999.72
2017-02-24T10:04:18.485Z,999.73
2017-02-24T10:05:18.872Z,999.71
2017-02-24T10:06:19.412Z,999.74
2017-02-24T10:07:19.937Z,999.79
2017-02-24T10:08:20.470Z,999.79
2017-02-24T10:09:20.999Z,999.87
2017-02-24T10:10:21.538Z,999.92
2017-02-24T10:11:22.063Z,999.91
2017-02-24T10:12:22.592Z,999.94
2017-02-24T10:13:23.125Z,999.92
2017-02-24T10:14:23.652Z,999.96
2017-02-24T10:15:24.185Z,1000.01
2017-02-24T10:16:24.710Z,999.95
2017-02-24T10:17:25.246Z,999.97
2017-02-24T10:18:25.778Z,999.96
2017-02-24T10:19:26.318Z,999.96
2017-02-24T10:20:26.840Z,1000.01
2017-02-24T10:21:27.522Z,1000.00
2017-02-24T10:22:27.915Z,1000.03
2017-02-24T10:23:28.440Z,1000.03
2017-02-24T10:24:28.985Z,1000.02
2017-02-24T10:25:29.501Z,1000.06
2017-02-24T10:26:30.040Z,1000.11
2017-02-24T10:27:30.576Z,1000.06
2017-02-24T10:28:31.120Z,1000.11
2017-02-24T10:29:31.648Z,1000.20
2017-02-24T10:30:32.176Z,1000.22
2017-02-24T10:31:32.710Z,1000.30
2017-02-24T10:32:33.237Z,1000.24
2017-02-24T10:33:33.772Z,1000.26
2017-02-24T10:34:34.303Z,1000.29
2017-02-24T10:35:34.837Z,1000.29
2017-02-24T10:36:35.366Z,1000.30
2017-02-24T10:37:35.902Z,1000.35
2017-02-24T10:38:36.434Z,1000.40
2017-02-24T10:39:36.964Z,1000.40
2017-02-24T10:40:37.497Z,1000.45
2017-02-24T10:41:38.030Z,1000.40
2017-02-24T10:42:38.709Z,1000.49
2017-02-24T10:43:39.102Z,1000.41
2017-02-24T10:44:39.623Z,1000.46
2017-02-24T10:45:40.154Z,1000.48
2017-02-24T10:46:40.684Z,1000.37
2017-02-24T10:47:41.220Z,1000.47
2017-02-24T10:48:41.745Z,1000.53
2017-02-24T10:49:42.281Z,1000.56
2017-02-24T10:50:42.810Z,1000.58
2017-02-24T10:51:43.349Z,1000.49
2017-02-24T10:52:43.884Z,1000.56
2017-02-24T10:53:44.412Z,1000.67
2017-02-24T10:54:44.947Z,1000.61
2017-02-24T10:55:45.477Z,1000.57
2017-02-24T10:56:46.017Z,1000.64
2017-02-24T10:57:46.541Z,1000.62
2017-02-24T10:58:47.074Z,1000.68
2017-02-24T10:59:47.607Z,1000.66
2017-02-24T11:00:48.138Z,1000.69
2017-02-24T11:01:48.676Z,1000.63
2017-02-24T11:02:49.204Z,1000.70
2017-02-24T11:03:49.736Z,1000.73
2017-02-24T11:04:50.419Z,1000.70
2017-02-24T11:05:50.800Z,1000.73
2017-02-24T11:06:51.345Z,1000.67
2017-02-24T11:07:51.868Z,1000.79
2017-02-24T11:08:52.407Z,1000.75
2017-02-24T11:09:52.943Z,1000.80
2017-02-24T11:10:53.467Z,1000.81
2017-02-24T11:11:54.000Z,1000.73
2017-02-24T11:12:54.702Z,1000.76
2017-02-24T11:13:55.060Z,1000.77
2017-02-24T11:14:55.601Z,1000.73
2017-02-24T11:15:56.124Z,1000.71
2017-02-24T11:16:56.657Z,1000.80
2017-02-24T11:17:57.189Z,1000.80
2017-02-24T11:18:57.711Z,1000.88
2017-02-24T11:19:58.254Z,1000.90
2017-02-24T11:20:58.782Z,1000.85
2017-02-24T11:21:59.312Z,1000.85
2017-02-24T11:22:59.840Z,1000.97
2017-02-24T11:24:00.375Z,1000.90
2017-02-24T11:25:00.912Z,1000.95
2017-02-24T11:26:01.438Z,1000.94
2017-02-24T11:27:01.970Z,1001.06
2017-02-24T11:28:02.501Z,1001.07
2017-02-24T11:29:03.039Z,1000.96
2017-02-24T11:30:03.563Z,1000.81
2017-02-24T11:31:04.102Z,1000.94
2017-02-24T11:32:04.624Z,1000.92
2017-02-24T11:33:05.160Z,1000.87
2017-02-24T11:34:05.690Z,1000.85
2017-02-24T11:35:06.223Z,1000.90
2017-02-24T11:36:06.757Z,1000.91
2017-02-24T11:37:07.283Z,1000.90
2017-02-24T11:38:07.814Z,1000.92
2017-02-24T11:39:08.346Z,1000.96
2017-02-24T11:40:08.874Z,1000.94
2017-02-24T11:41:09.407Z,1000.87
2017-02-24T11:42:09.938Z,1000.79
2017-02-24T11:43:10.468Z,1000.82
2017-02-24T11:44:11.004Z,1000.77
2017-02-24T11:45:11.683Z,1000.79
2017-02-24T11:46:12.072Z,1000.81
2017-02-24T11:47:12.603Z,1000.90
2017-02-24T11:48:13.139Z,1000.93
2017-02-24T11:49:13.674Z,1000.90
2017-02-24T11:50:14.211Z,1000.97
2017-02-24T11:51:14.742Z,1000.86
2017-02-24T11:52:15.282Z,1000.87
2017-02-24T11:53:15.827Z,1000.93
2017-02-24T11:54:16.337Z,1000.97
2017-02-24T11:55:16.867Z,1000.99
2017-02-24T11:56:17.400Z,1000.93
2017-02-24T11:57:17.937Z,1001.00
2017-02-24T11:58:18.463Z,1001.02
2017-02-24T11:59:19.011Z,1000.75
2017-02-24T12:00:19.526Z,1001.02
2017-02-24T12:01:20.056Z,1001.06
2017-02-24T12:02:20.587Z,1001.14
2017-02-24T12:03:21.116Z,1001.08
2017-02-24T12:04:21.648Z,1001.08
2017-02-24T12:05:22.188Z,1001.13
2017-02-24T12:06:22.708Z,1001.15
2017-02-24T12:07:23.240Z,1001.16
2017-02-24T12:08:23.772Z,1001.20
2017-02-24T12:09:24.298Z,1001.18
2017-02-24T12:10:24.834Z,1001.26
2017-02-24T12:11:25.362Z,1001.25
2017-02-24T12:12:25.895Z,1001.22
2017-02-24T12:13:26.429Z,1001.23
2017-02-24T12:14:26.961Z,1001.26
2017-02-24T12:15:27.490Z,1001.25
2017-02-24T12:16:28.165Z,1001.27
2017-02-24T12:17:28.548Z,1001.25
2017-02-24T12:18:29.082Z,1001.26
2017-02-24T12:19:29.613Z,1001.31
2017-02-24T12:20:30.140Z,1001.34
2017-02-24T12:21:30.675Z,1001.32
2017-02-24T12:22:31.205Z,1001.32
2017-02-24T12:23:31.738Z,1001.38
2017-02-24T12:24:32.412Z,1001.37
2017-02-24T12:25:32.798Z,1001.34
2017-02-24T12:26:33.328Z,1001.43
2017-02-24T12:27:33.858Z,1001.52
2017-02-24T12:28:34.395Z,1001.41
2017-02-24T12:29:34.928Z,1001.49
2017-02-24T12:30:35.464Z,1001.43
2017-02-24T12:31:36.003Z,1001.41